createdAt,value
2023-02-03T00:02:25.226Z,24.70
2023-02-03T00:04:52.783Z,24.70
2023-02-03T00:07:20.552Z,24.70
2023-02-03T00:09:47.955Z,24.70
2023-02-03T00:12:15.474Z,24.70
2023-02-03T00:14:42.853Z,24.70
2023-02-03T00:17:10.179Z,24.60
2023-02-03T00:19:37.495Z,24.60
2023-02-03T00:22:04.900Z,24.60
2023-02-03T00:24:32.374Z,24.50
2023-02-03T00:26:59.857Z,24.60
2023-02-03T00:29:28.135Z,24.60
2023-02-03T00:31:55.777Z,24.60
2023-02-03T00:34:23.462Z,24.50
2023-02-03T00:36:51.009Z,24.40
2023-02-03T00:39:18.331Z,24.50
2023-02-03T00:41:47.245Z,24.40
2023-02-03T00:44:15.143Z,24.40
2023-02-03T00:46:45.568Z,24.40
2023-02-03T00:49:12.927Z,24.30
2023-02-03T00:51:40.495Z,24.30
2023-02-03T00:54:08.165Z,24.30
2023-02-03T00:56:35.601Z,24.30
2023-02-03T00:59:03.179Z,24.30
2023-02-03T01:01:32.074Z,24.30
2023-02-03T01:04:00.174Z,24.20
2023-02-03T01:06:28.737Z,24.20
2023-02-03T01:08:56.220Z,24.20
2023-02-03T01:11:29.974Z,24.20
2023-02-03T01:14:01.816Z,24.10
2023-02-03T01:16:46.913Z,24.10
2023-02-03T01:19:14.986Z,24.10
2023-02-03T01:21:42.588Z,24.10
2023-02-03T01:24:10.086Z,24.10
2023-02-03T01:26:39.594Z,24.00
2023-02-03T01:29:08.449Z,24.00
2023-02-03T01:31:39.995Z,24.00
2023-02-03T01:34:13.359Z,23.90
2023-02-03T01:36:41.207Z,23.90
2023-02-03T01:39:08.603Z,23.90
2023-02-03T01:41:38.593Z,23.90
2023-02-03T01:44:43.064Z,23.90
2023-02-03T01:47:19.518Z,23.90
2023-02-03T01:50:19.949Z,23.90
2023-02-03T01:52:58.668Z,23.80
2023-02-03T01:55:32.093Z,23.80
2023-02-03T01:58:16.622Z,23.80
2023-02-03T02:00:44.605Z,23.70
2023-02-03T02:03:13.613Z,23.70
2023-02-03T02:05:50.468Z,23.70
2023-02-03T02:08:22.356Z,23.70
2023-02-03T02:10:50.594Z,23.70
2023-02-03T02:13:20.270Z,23.70
2023-02-03T02:16:03.339Z,23.60
2023-02-03T02:19:06.279Z,23.60
2023-02-03T02:22:01.840Z,23.60
2023-02-03T02:25:29.914Z,23.60
2023-02-03T02:28:18.805Z,23.50
2023-02-03T02:31:02.061Z,23.50
2023-02-03T02:33:43.264Z,23.50
2023-02-03T02:37:08.001Z,23.40
2023-02-03T02:40:19.119Z,23.40
2023-02-03T02:43:21.841Z,23.40
2023-02-03T02:45:54.226Z,23.40
2023-02-03T02:48:46.752Z,23.40
2023-02-03T02:51:15.938Z,23.40
2023-02-03T02:53:52.930Z,23.40
2023-02-03T02:56:22.538Z,23.30
2023-02-03T02:58:51.371Z,23.20
2023-02-03T03:01:19.511Z,23.20
2023-02-03T03:03:47.015Z,23.30
2023-02-03T03:06:26.623Z,23.20
2023-02-03T03:09:05.006Z,23.20
2023-02-03T03:11:43.270Z,23.20
2023-02-03T03:14:15.876Z,23.20
2023-02-03T03:16:51.511Z,23.10
2023-02-03T03:19:25.807Z,23.10
2023-02-03T03:22:01.809Z,23.10
2023-02-03T03:24:35.407Z,23.10
2023-02-03T03:27:13.639Z,23.00
2023-02-03T03:30:11.355Z,23.00
2023-02-03T03:32:39.489Z,23.00
2023-02-03T03:35:08.138Z,23.00
2023-02-03T03:37:57.367Z,23.00
2023-02-03T03:40:38.760Z,23.00
2023-02-03T03:43:20.587Z,23.00
2023-02-03T03:45:58.389Z,22.90
2023-02-03T03:48:37.599Z,22.90
2023-02-03T03:51:49.647Z,22.90
2023-02-03T03:54:22.268Z,22.90
2023-02-03T03:57:15.667Z,22.80
2023-02-03T03:59:48.751Z,22.80
2023-02-03T04:02:19.127Z,22.80
2023-02-03T04:04:48.406Z,22.80
2023-02-03T04:07:16.362Z,22.80
2023-02-03T04:09:43.948Z,22.80
2023-02-03T04:12:23.275Z,22.70
2023-02-03T04:14:50.854Z,22.70
2023-02-03T04:17:20.400Z,22.70
2023-02-03T04:19:49.084Z,22.70
2023-02-03T04:22:16.509Z,22.60
2023-02-03T04:24:44.127Z,22.60
2023-02-03T04:27:11.502Z,22.60
2023-02-03T04:29:38.921Z,22.60
2023-02-03T04:32:06.372Z,22.60
2023-02-03T04:34:34.061Z,22.60
2023-02-03T04:37:01.642Z,22.60
2023-02-03T04:39:29.341Z,22.50
2023-02-03T04:41:57.297Z,22.60
2023-02-03T04:44:24.802Z,22.50
2023-02-03T04:46:52.212Z,22.60
2023-02-03T04:49:31.716Z,22.50
2023-02-03T04:51:59.345Z,22.50
2023-02-03T04:54:26.942Z,22.40
2023-02-03T04:56:54.343Z,22.50
2023-02-03T04:59:21.823Z,22.40
2023-02-03T05:01:49.273Z,22.40
2023-02-03T05:04:16.876Z,22.40
2023-02-03T05:06:44.458Z,22.40
2023-02-03T05:09:11.870Z,22.40
2023-02-03T05:11:39.636Z,22.40
2023-02-03T05:14:08.050Z,22.40
2023-02-03T05:16:35.624Z,22.30
2023-02-03T05:19:03.237Z,22.30
2023-02-03T05:21:30.697Z,22.30
2023-02-03T05:23:58.360Z,22.30
2023-02-03T05:26:28.394Z,22.30
2023-02-03T05:28:57.673Z,22.30
2023-02-03T05:31:25.708Z,22.30
2023-02-03T05:33:53.308Z,22.20
2023-02-03T05:36:20.938Z,22.20
2023-02-03T05:38:50.698Z,22.20
2023-02-03T05:41:36.555Z,22.10
2023-02-03T05:44:04.342Z,22.10
2023-02-03T05:46:31.847Z,22.10
2023-02-03T05:49:02.123Z,22.10
2023-02-03T05:51:29.633Z,22.10
2023-02-03T05:53:58.711Z,22.00
2023-02-03T05:56:26.526Z,22.00
2023-02-03T05:58:53.954Z,22.00
2023-02-03T06:01:21.447Z,22.00
2023-02-03T06:03:49.364Z,22.00
2023-02-03T06:06:17.966Z,22.00
2023-02-03T06:08:45.557Z,21.90
2023-02-03T06:11:12.945Z,21.90
2023-02-03T06:13:40.506Z,21.90
2023-02-03T06:16:08.195Z,21.80
2023-02-03T06:18:37.497Z,21.80
2023-02-03T06:21:05.375Z,21.80
2023-02-03T06:23:32.854Z,21.80
2023-02-03T06:26:03.153Z,21.80
2023-02-03T06:28:30.662Z,21.80
2023-02-03T06:30:58.227Z,21.80
2023-02-03T06:33:26.000Z,21.70
2023-02-03T06:35:54.950Z,21.70
2023-02-03T06:38:22.384Z,21.70
2023-02-03T06:40:49.997Z,21.70
2023-02-03T06:43:17.741Z,21.60
2023-02-03T06:45:48.134Z,21.60
2023-02-03T06:48:16.191Z,21.60
2023-02-03T06:50:46.436Z,21.60
2023-02-03T06:53:14.807Z,21.60
2023-02-03T06:55:44.250Z,21.60
2023-02-03T06:58:11.640Z,21.60
2023-02-03T07:00:39.000Z,21.60
2023-02-03T07:03:06.452Z,21.60
2023-02-03T07:05:36.967Z,21.50
2023-02-03T07:08:04.594Z,21.60
2023-02-03T07:10:32.244Z,21.60
2023-02-03T07:13:07.471Z,21.50
2023-02-03T07:15:35.683Z,21.50
2023-02-03T07:18:03.119Z,21.50
2023-02-03T07:20:32.581Z,21.50
2023-02-03T07:23:02.669Z,21.50
2023-02-03T07:25:31.160Z,21.50
2023-02-03T07:27:58.547Z,21.50
2023-02-03T07:30:29.333Z,21.50
2023-02-03T07:32:57.214Z,21.50
2023-02-03T07:35:25.469Z,21.50
2023-02-03T07:37:53.633Z,21.40
2023-02-03T07:40:21.330Z,21.50
2023-02-03T07:42:50.263Z,21.40
2023-02-03T07:45:19.022Z,21.40
2023-02-03T07:47:46.474Z,21.40
2023-02-03T07:50:13.830Z,21.40
2023-02-03T07:52:41.339Z,21.40
2023-02-03T07:55:09.690Z,21.40
2023-02-03T07:57:37.446Z,21.40
2023-02-03T08:00:07.526Z,21.40
2023-02-03T08:02:44.215Z,21.30
2023-02-03T08:05:13.004Z,21.30
2023-02-03T08:07:41.265Z,21.40
2023-02-03T08:10:11.348Z,21.30
2023-02-03T08:12:39.147Z,21.30
2023-02-03T08:15:07.650Z,21.30
2023-02-03T08:17:35.373Z,21.30
2023-02-03T08:20:02.919Z,21.30
2023-02-03T08:22:31.006Z,21.30
2023-02-03T08:24:58.457Z,21.30
2023-02-03T08:27:26.459Z,21.30
2023-02-03T08:29:56.529Z,21.30
2023-02-03T08:32:27.598Z,21.30
2023-02-03T08:34:55.345Z,21.30
2023-02-03T08:37:28.472Z,21.20
2023-02-03T08:40:00.201Z,21.20
2023-02-03T08:42:28.412Z,21.20
2023-02-03T08:44:56.393Z,21.20
2023-02-03T08:47:24.458Z,21.20
2023-02-03T08:49:52.103Z,21.20
2023-02-03T08:52:19.955Z,21.20
2023-02-03T08:54:48.308Z,21.20
2023-02-03T08:57:16.267Z,21.20
2023-02-03T08:59:45.959Z,21.10
2023-02-03T09:02:19.454Z,21.20
2023-02-03T09:04:49.322Z,21.10
2023-02-03T09:07:17.090Z,21.10
2023-02-03T09:09:45.933Z,21.10
2023-02-03T09:12:13.586Z,21.10
2023-02-03T09:14:41.310Z,21.00
2023-02-03T09:17:10.139Z,21.00
2023-02-03T09:19:37.937Z,21.00
2023-02-03T09:22:05.944Z,21.00
2023-02-03T09:24:33.955Z,21.00
2023-02-03T09:27:01.611Z,21.00
2023-02-03T09:29:29.270Z,21.00
2023-02-03T09:31:56.905Z,21.00
2023-02-03T09:34:24.590Z,20.90
2023-02-03T09:36:52.244Z,20.90
2023-02-03T09:39:19.900Z,20.90
2023-02-03T09:42:34.113Z,20.90
2023-02-03T09:45:20.723Z,20.90
2023-02-03T09:47:54.277Z,20.80
2023-02-03T09:50:26.010Z,20.90
2023-02-03T09:52:54.746Z,20.90
2023-02-03T09:55:35.966Z,20.90
2023-02-03T09:58:18.598Z,20.90
2023-02-03T10:01:02.884Z,20.90
2023-02-03T10:04:02.414Z,20.90
2023-02-03T10:06:36.653Z,20.90
2023-02-03T10:09:28.707Z,20.90
2023-02-03T10:12:20.159Z,20.80
2023-02-03T10:15:16.083Z,20.80
2023-02-03T10:18:10.579Z,20.80
2023-02-03T10:21:30.720Z,20.80
2023-02-03T10:23:59.581Z,20.80
2023-02-03T10:26:29.640Z,20.80
2023-02-03T10:29:07.239Z,20.70
2023-02-03T10:31:37.662Z,20.70
2023-02-03T10:34:15.303Z,20.70
2023-02-03T10:36:48.426Z,20.70
2023-02-03T10:39:50.011Z,20.70
2023-02-03T10:42:22.375Z,20.70
2023-02-03T10:45:00.576Z,20.70
2023-02-03T10:47:38.394Z,20.60
2023-02-03T10:50:22.603Z,20.60
2023-02-03T10:52:50.363Z,20.60
2023-02-03T10:55:38.155Z,20.60
2023-02-03T10:58:23.352Z,20.60
2023-02-03T11:00:59.296Z,20.60
2023-02-03T11:03:29.765Z,20.60
2023-02-03T11:06:17.922Z,20.60
2023-02-03T11:08:48.780Z,20.60
2023-02-03T11:11:29.258Z,20.60
2023-02-03T11:14:17.397Z,20.50
2023-02-03T11:16:47.446Z,20.60
2023-02-03T11:19:21.230Z,20.60
2023-02-03T11:21:56.692Z,20.60
2023-02-03T11:24:33.769Z,20.60
2023-02-03T11:27:18.777Z,20.60
2023-02-03T11:30:17.283Z,20.60
2023-02-03T11:32:47.225Z,20.60
2023-02-03T11:35:23.918Z,20.60
2023-02-03T11:37:58.691Z,20.60
2023-02-03T11:40:30.471Z,20.60
2023-02-03T11:42:58.019Z,20.60
2023-02-03T11:45:42.259Z,20.60
2023-02-03T11:48:39.084Z,20.70
2023-02-03T11:51:49.190Z,20.70
2023-02-03T11:54:31.041Z,20.70
2023-02-03T11:57:28.711Z,20.70
2023-02-03T12:00:18.063Z,20.70
2023-02-03T12:03:12.296Z,20.70
2023-02-03T12:06:13.121Z,20.80
2023-02-03T12:08:55.991Z,20.80
2023-02-03T12:12:00.310Z,20.80
2023-02-03T12:15:18.814Z,20.80
2023-02-03T12:18:26.684Z,20.80
2023-02-03T12:21:44.438Z,20.80
2023-02-03T12:24:43.570Z,20.80
2023-02-03T12:27:33.171Z,20.80
2023-02-03T12:30:14.898Z,20.80
2023-02-03T12:32:47.950Z,20.90
2023-02-03T12:35:39.582Z,20.80
2023-02-03T12:38:35.032Z,20.90
2023-02-03T12:41:19.320Z,20.90
2023-02-03T12:43:50.918Z,20.80
2023-02-03T12:46:31.675Z,20.80
2023-02-03T12:49:40.571Z,20.90
2023-02-03T12:52:23.728Z,20.80
2023-02-03T12:55:22.764Z,20.90
2023-02-03T12:58:07.672Z,20.90
2023-02-03T13:00:59.035Z,20.90
2023-02-03T13:03:52.201Z,20.90
2023-02-03T13:06:31.197Z,20.90
2023-02-03T13:09:38.266Z,20.90
2023-02-03T13:12:50.607Z,20.90
2023-02-03T13:15:33.224Z,20.90
2023-02-03T13:18:29.822Z,20.90
2023-02-03T13:20:57.728Z,20.90
2023-02-03T13:23:28.861Z,20.90
2023-02-03T13:26:20.460Z,20.90
2023-02-03T13:29:19.484Z,20.90
2023-02-03T13:32:07.566Z,20.90
2023-02-03T13:35:24.786Z,20.90
2023-02-03T13:38:40.035Z,21.00
2023-02-03T13:41:52.636Z,20.90
2023-02-03T13:44:28.671Z,20.90
2023-02-03T13:46:59.517Z,21.00
2023-02-03T13:49:34.511Z,21.00
2023-02-03T13:52:02.648Z,21.00
2023-02-03T13:54:43.936Z,21.00
2023-02-03T13:57:28.796Z,21.00
2023-02-03T13:59:56.379Z,21.00
2023-02-03T14:02:42.532Z,21.00
2023-02-03T14:05:44.793Z,21.00
2023-02-03T14:08:26.858Z,21.00
2023-02-03T14:11:34.682Z,21.00
2023-02-03T14:14:08.015Z,21.00
2023-02-03T14:16:50.013Z,21.00
2023-02-03T14:19:33.575Z,21.00
2023-02-03T14:22:10.180Z,21.00
2023-02-03T14:24:44.583Z,21.00
2023-02-03T14:27:28.199Z,21.00
2023-02-03T14:30:15.561Z,21.00
2023-02-03T14:33:00.150Z,21.00
2023-02-03T14:35:37.361Z,21.00
2023-02-03T14:38:14.334Z,21.00
2023-02-03T14:41:05.172Z,21.00
2023-02-03T14:44:01.799Z,21.00
2023-02-03T14:47:09.713Z,21.00
2023-02-03T14:49:43.450Z,21.00
2023-02-03T14:52:46.286Z,21.00
2023-02-03T14:55:52.193Z,21.00
2023-02-03T14:58:36.079Z,21.00
2023-02-03T15:01:08.534Z,21.00
2023-02-03T15:03:38.050Z,21.00
2023-02-03T15:06:06.480Z,21.00
2023-02-03T15:08:47.697Z,21.00
2023-02-03T15:11:45.070Z,21.00
2023-02-03T15:14:27.994Z,21.00
2023-02-03T15:17:01.595Z,21.00
2023-02-03T15:19:39.712Z,21.00
2023-02-03T15:22:20.805Z,21.00
2023-02-03T15:24:51.173Z,21.00
2023-02-03T15:27:25.743Z,21.00
2023-02-03T15:29:54.501Z,21.00
2023-02-03T15:32:37.036Z,21.00
2023-02-03T15:35:11.590Z,21.00
2023-02-03T15:38:18.593Z,21.00
2023-02-03T15:40:53.517Z,20.90
2023-02-03T15:43:42.751Z,20.90
2023-02-03T15:46:29.710Z,20.90
2023-02-03T15:49:01.165Z,20.90
2023-02-03T15:51:37.351Z,20.90
2023-02-03T15:54:14.970Z,20.90
2023-02-03T15:57:01.221Z,20.90
2023-02-03T15:59:38.719Z,20.90
2023-02-03T16:02:18.178Z,20.90
2023-02-03T16:04:46.796Z,21.00
2023-02-03T16:07:29.903Z,20.90
2023-02-03T16:10:00.080Z,20.90
2023-02-03T16:12:29.697Z,20.90
2023-02-03T16:14:59.865Z,20.90
2023-02-03T16:17:41.704Z,20.90
2023-02-03T16:20:12.349Z,20.90
2023-02-03T16:23:00.702Z,20.90
2023-02-03T16:25:32.112Z,20.90
2023-02-03T16:28:35.692Z,20.90
2023-02-03T16:31:37.753Z,20.90
2023-02-03T16:34:36.950Z,20.90
2023-02-03T16:37:42.802Z,20.90
2023-02-03T16:40:37.691Z,21.00
2023-02-03T16:43:24.462Z,21.00
2023-02-03T16:46:15.614Z,21.00
2023-02-03T16:49:01.635Z,21.00
2023-02-03T16:51:39.749Z,21.00
2023-02-03T16:54:10.837Z,21.00
2023-02-03T16:56:38.718Z,21.00
2023-02-03T16:59:06.623Z,21.00
2023-02-03T17:01:34.284Z,21.00
2023-02-03T17:04:02.751Z,21.00
2023-02-03T17:06:30.982Z,21.00
2023-02-03T17:08:59.219Z,21.00
2023-02-03T17:11:27.410Z,21.00
2023-02-03T17:13:54.993Z,21.00
2023-02-03T17:16:25.518Z,21.00
2023-02-03T17:18:53.922Z,21.00
2023-02-03T17:21:26.191Z,21.00
2023-02-03T17:23:53.874Z,21.00
2023-02-03T17:26:21.802Z,21.10
2023-02-03T17:28:49.419Z,21.10
2023-02-03T17:31:20.078Z,21.10
2023-02-03T17:33:53.698Z,21.20
2023-02-03T17:36:22.122Z,21.20
2023-02-03T17:55:33.262Z,21.50
2023-02-03T17:58:01.292Z,21.50
2023-02-03T18:00:29.115Z,21.50
2023-02-03T18:02:57.752Z,21.50
2023-02-03T18:05:25.543Z,21.60
2023-02-03T18:07:53.089Z,21.60
2023-02-03T18:10:21.806Z,21.70
2023-02-03T18:12:49.584Z,21.70
2023-02-03T18:15:17.215Z,21.70
2023-02-03T18:17:44.824Z,21.80
2023-02-03T18:20:13.766Z,21.80
2023-02-03T18:22:41.301Z,21.80
2023-02-03T18:25:09.828Z,21.80
2023-02-03T18:27:37.413Z,21.80
2023-02-03T18:30:05.567Z,21.80
2023-02-03T18:32:32.980Z,21.90
2023-02-03T18:35:01.071Z,21.90
2023-02-03T18:37:28.862Z,21.90
2023-02-03T18:39:56.273Z,21.90
2023-02-03T18:42:23.789Z,22.00
2023-02-03T18:44:51.466Z,22.00
2023-02-03T18:47:18.952Z,22.10
2023-02-03T18:49:48.182Z,22.10
2023-02-03T18:52:16.003Z,22.20
2023-02-03T18:54:43.580Z,22.20
2023-02-03T18:57:14.222Z,22.30
2023-02-03T18:59:42.200Z,22.30
2023-02-03T19:02:11.493Z,22.30
2023-02-03T19:04:38.994Z,22.30
2023-02-03T19:07:06.856Z,22.30
2023-02-03T19:09:34.928Z,22.30
2023-02-03T19:12:03.279Z,22.30
2023-02-03T19:14:30.908Z,22.30
2023-02-03T19:16:58.572Z,22.30
2023-02-03T19:19:29.283Z,22.30
2023-02-03T19:21:58.680Z,22.30
2023-02-03T19:24:27.440Z,22.30
2023-02-03T19:26:55.287Z,22.30
2023-02-03T19:29:23.091Z,22.30
2023-02-03T19:31:51.888Z,22.30
2023-02-03T19:34:19.471Z,22.30
2023-02-03T19:36:50.035Z,22.30
2023-02-03T19:39:18.865Z,22.30
2023-02-03T19:41:49.573Z,22.30
2023-02-03T19:44:17.035Z,22.30
2023-02-03T19:46:44.650Z,22.30
2023-02-03T19:49:13.609Z,22.30
2023-02-03T19:51:45.182Z,22.30
2023-02-03T19:54:15.687Z,22.30
2023-02-03T19:56:44.453Z,22.30
2023-02-03T19:59:12.078Z,22.30
2023-02-03T20:01:39.735Z,22.40
2023-02-03T20:04:07.785Z,22.40
2023-02-03T20:06:35.714Z,22.40
2023-02-03T20:09:04.445Z,22.40
2023-02-03T20:11:32.122Z,22.40
2023-02-03T20:13:59.901Z,22.40
2023-02-03T20:16:30.706Z,22.40
2023-02-03T20:19:01.339Z,22.40
2023-02-03T20:21:28.862Z,22.40
2023-02-03T20:23:56.297Z,22.40
2023-02-03T20:26:24.542Z,22.50
2023-02-03T20:28:52.275Z,22.40
2023-02-03T20:31:20.151Z,22.40
2023-02-03T20:33:47.999Z,22.50
2023-02-03T20:36:15.584Z,22.50
2023-02-03T20:38:43.363Z,22.50
2023-02-03T20:41:12.938Z,22.50
2023-02-03T20:43:40.972Z,22.50
2023-02-03T20:46:16.458Z,22.50
2023-02-03T20:48:44.755Z,22.50
2023-02-03T20:51:14.786Z,22.60
2023-02-03T20:53:52.787Z,22.60
2023-02-03T20:56:22.077Z,22.60
2023-02-03T20:58:49.724Z,22.60
2023-02-03T21:01:22.759Z,22.70
2023-02-03T21:04:09.093Z,22.70
2023-02-03T21:06:37.069Z,22.70
2023-02-03T21:09:20.227Z,22.70
2023-02-03T21:11:47.696Z,22.70
2023-02-03T21:14:22.668Z,22.70
2023-02-03T21:16:51.451Z,22.70
2023-02-03T21:19:29.722Z,22.70
2023-02-03T21:21:57.942Z,22.80
2023-02-03T21:24:36.889Z,22.80
2023-02-03T21:27:23.211Z,22.80
2023-02-03T21:29:55.847Z,22.70
2023-02-03T21:32:31.530Z,22.80
2023-02-03T21:35:03.353Z,22.70
2023-02-03T21:37:40.117Z,22.70
2023-02-03T21:40:34.942Z,22.80
2023-02-03T21:43:03.539Z,22.80
2023-02-03T21:45:38.676Z,22.80
2023-02-03T21:48:40.638Z,22.80
2023-02-03T21:51:26.737Z,22.90
2023-02-03T21:54:24.194Z,22.90
2023-02-03T21:56:52.022Z,22.90
2023-02-03T21:59:33.663Z,22.90
2023-02-03T22:02:06.693Z,22.90
2023-02-03T22:04:34.427Z,23.00
2023-02-03T22:07:02.017Z,23.00
2023-02-03T22:09:29.722Z,23.00
2023-02-03T22:11:57.396Z,23.00
2023-02-03T22:14:25.080Z,23.00
2023-02-03T22:16:52.842Z,23.00
2023-02-03T22:19:22.796Z,23.00
2023-02-03T22:21:51.593Z,23.00
2023-02-03T22:24:19.037Z,23.00
2023-02-03T22:26:46.402Z,23.00
2023-02-03T22:29:13.843Z,23.00
2023-02-03T22:31:42.955Z,23.10
2023-02-03T22:34:10.535Z,23.10
2023-02-03T22:36:38.339Z,23.10
2023-02-03T22:39:06.027Z,23.10
2023-02-03T22:41:33.371Z,23.10
2023-02-03T22:44:00.890Z,23.10
2023-02-03T22:46:28.580Z,23.10
2023-02-03T22:48:56.240Z,23.10
2023-02-03T22:51:23.816Z,23.10
2023-02-03T22:53:51.339Z,23.10
2023-02-03T22:56:18.801Z,23.10
2023-02-03T22:58:46.172Z,23.10
2023-02-03T23:01:14.053Z,23.10
2023-02-03T23:03:41.536Z,23.10
2023-02-03T23:06:08.775Z,23.10
2023-02-03T23:08:36.165Z,23.10
2023-02-03T23:11:03.800Z,23.10
2023-02-03T23:13:31.473Z,23.10
2023-02-03T23:15:59.119Z,23.10
2023-02-03T23:18:26.644Z,23.00
2023-02-03T23:20:54.359Z,23.00
2023-02-03T23:23:22.111Z,23.00
2023-02-03T23:25:49.708Z,23.00
2023-02-03T23:28:17.354Z,23.00
2023-02-03T23:30:45.064Z,23.00
2023-02-03T23:33:12.758Z,23.00
2023-02-03T23:35:46.655Z,23.00
2023-02-03T23:38:18.350Z,22.90
2023-02-03T23:40:45.972Z,22.90
2023-02-03T23:43:13.925Z,22.90
2023-02-03T23:45:41.593Z,22.90
2023-02-03T23:48:09.525Z,22.90
2023-02-03T23:50:37.183Z,22.90
2023-02-03T23:53:05.055Z,22.90
2023-02-03T23:55:32.522Z,22.80
2023-02-03T23:58:00.036Z,22.80
